Time;durP1;ratioP1;P1;durP2;ratioP2;P2;SDS_P1;SDS_P2;PMS_P1;PMS_P2;Temp;Humidity;BMP_temperature;BMP_pressure;BME280_temperature;BME280_humidity;BME280_pressure;Samples;Min_cycle;Max_cycle;Signal;HPM_P1;HPM_P2
2021/05/16 00:01:53;;;;;;;2.20;0.90;;;6.50;99.90;;;;;;5134699;27;20454;-66
2021/05/16 00:04:20;;;;;;;2.17;1.03;;;6.50;99.90;;;;;;5134569;27;20761;-66
2021/05/16 00:06:47;;;;;;;2.30;1.17;;;6.50;99.90;;;;;;5134630;27;20446;-66
2021/05/16 00:09:13;;;;;;;1.30;1.20;;;6.40;99.90;;;;;;5134657;27;20518;-66
2021/05/16 00:11:40;;;;;;;1.13;1.03;;;6.40;99.90;;;;;;5134362;27;20451;-66
2021/05/16 00:14:07;;;;;;;1.50;1.13;;;6.50;99.90;;;;;;5134612;27;20835;-66
2021/05/16 00:16:34;;;;;;;1.20;1.10;;;6.50;99.90;;;;;;5134293;27;20454;-67
2021/05/16 00:19:01;;;;;;;1.20;1.00;;;6.50;99.90;;;;;;5134336;27;20525;-66
2021/05/16 00:21:27;;;;;;;1.10;0.90;;;6.50;99.90;;;;;;5125658;27;20450;-66
2021/05/16 00:23:54;;;;;;;1.17;1.00;;;6.50;99.90;;;;;;5113966;28;20427;-66
2021/05/16 00:26:21;;;;;;;1.73;1.00;;;6.50;99.90;;;;;;5113692;28;20851;-67
2021/05/16 00:28:47;;;;;;;1.83;1.23;;;6.50;99.90;;;;;;5112671;27;20447;-67
2021/05/16 00:31:14;;;;;;;1.20;0.90;;;6.50;99.90;;;;;;5122260;27;20430;-66
2021/05/16 00:33:42;;;;;;;1.67;1.00;;;6.40;99.90;;;;;;5134296;27;20465;-67
2021/05/16 00:36:08;;;;;;;1.60;1.20;;;6.40;99.90;;;;;;5134354;27;20506;-67
2021/05/16 00:38:35;;;;;;;1.97;1.00;;;6.50;99.90;;;;;;5134464;27;20936;-65
2021/05/16 00:41:02;;;;;;;1.23;0.90;;;6.50;99.90;;;;;;5133988;27;20430;-65
2021/05/16 00:43:28;;;;;;;0.90;0.73;;;6.50;99.90;;;;;;5132642;27;20429;-65
2021/05/16 00:45:55;;;;;;;1.00;0.90;;;6.50;99.90;;;;;;5134037;27;20451;-65
2021/05/16 00:48:22;;;;;;;2.07;1.23;;;6.50;99.90;;;;;;5132466;27;20912;-66
2021/05/16 00:50:49;;;;;;;1.20;1.03;;;6.50;99.90;;;;;;5112973;28;20433;-65
2021/05/16 00:53:21;;;;;;;1.00;0.90;;;6.60;99.90;;;;;;5113491;28;20434;-66
2021/05/16 00:55:50;;;;;;;2.93;0.80;;;6.60;99.90;;;;;;5113419;28;20452;-65
2021/05/16 00:58:16;;;;;;;2.70;0.97;;;6.60;99.90;;;;;;5113183;28;20518;-66
2021/05/16 01:00:43;;;;;;;1.57;0.70;;;6.60;99.90;;;;;;5113158;28;20429;-66
2021/05/16 01:03:11;;;;;;;1.17;1.07;;;6.60;99.90;;;;;;5113344;28;20811;-66
2021/05/16 01:05:39;;;;;;;1.27;0.90;;;6.60;99.90;;;;;;5112881;28;20449;-65
2021/05/16 01:08:07;;;;;;;2.80;0.90;;;6.60;99.90;;;;;;5113266;28;20792;-66
2021/05/16 01:10:34;;;;;;;0.90;0.70;;;6.60;99.90;;;;;;5112959;28;20433;-66
2021/05/16 01:13:03;;;;;;;2.33;0.80;;;6.60;99.90;;;;;;5113093;28;20945;-66
2021/05/16 01:15:31;;;;;;;1.03;0.73;;;6.60;99.90;;;;;;5113137;28;20464;-66
2021/05/16 01:17:58;;;;;;;1.17;1.07;;;6.60;99.90;;;;;;5112945;28;20475;-65
2021/05/16 01:20:29;;;;;;;1.00;0.83;;;6.60;99.90;;;;;;5111903;27;20440;-66
2021/05/16 01:23:00;;;;;;;3.23;0.90;;;6.60;99.90;;;;;;5113376;28;20439;-65
2021/05/16 01:25:27;;;;;;;0.87;0.70;;;6.50;99.90;;;;;;5112135;27;20465;-65
2021/05/16 01:27:55;;;;;;;1.10;0.90;;;6.50;99.90;;;;;;5112805;28;20426;-66
2021/05/16 01:30:23;;;;;;;0.80;0.70;;;6.60;99.90;;;;;;5112617;28;20428;-66
2021/05/16 01:32:51;;;;;;;0.83;0.63;;;6.60;99.90;;;;;;5113023;28;20425;-66
2021/05/16 01:35:18;;;;;;;8.00;0.80;;;6.60;99.90;;;;;;5112285;28;20449;-65
2021/05/16 01:37:47;;;;;;;2.00;0.73;;;6.60;99.90;;;;;;5112329;28;20466;-66
2021/05/16 01:40:15;;;;;;;1.20;0.67;;;6.60;99.90;;;;;;5112531;28;20441;-66
2021/05/16 01:42:47;;;;;;;2.33;1.00;;;6.60;99.90;;;;;;5112518;28;20428;-66
2021/05/16 01:45:15;;;;;;;0.90;0.70;;;6.60;99.90;;;;;;5112093;28;20500;-66
2021/05/16 01:47:41;;;;;;;1.00;0.73;;;6.60;99.90;;;;;;5112246;28;20447;-65
2021/05/16 01:50:11;;;;;;;0.90;0.70;;;6.60;99.90;;;;;;5112093;28;20781;-65
2021/05/16 01:52:41;;;;;;;1.00;0.90;;;6.60;99.90;;;;;;5111669;28;20438;-66
2021/05/16 01:55:09;;;;;;;1.00;0.70;;;6.60;99.90;;;;;;5111760;28;20450;-65
2021/05/16 01:57:37;;;;;;;1.33;0.80;;;6.60;99.90;;;;;;5112177;28;20812;-65
2021/05/16 02:00:06;;;;;;;0.90;0.80;;;6.60;99.90;;;;;;5112046;28;20969;-65
2021/05/16 02:02:33;;;;;;;1.47;0.70;;;6.60;99.90;;;;;;5112149;28;20434;-66
2021/05/16 02:05:00;;;;;;;0.93;0.83;;;6.60;99.90;;;;;;5111914;28;20469;-65
2021/05/16 02:07:27;;;;;;;1.17;0.80;;;6.60;99.90;;;;;;5112052;28;20479;-65
2021/05/16 02:09:54;;;;;;;2.07;0.80;;;6.60;99.90;;;;;;5112040;28;20870;-66
2021/05/16 02:12:22;;;;;;;2.13;0.90;;;6.60;99.90;;;;;;5111938;28;20429;-65
2021/05/16 02:14:50;;;;;;;2.73;0.90;;;6.60;99.90;;;;;;5111135;27;20485;-66
2021/05/16 02:17:17;;;;;;;4.50;0.80;;;6.60;99.90;;;;;;5111705;28;20489;-65
2021/05/16 02:19:44;;;;;;;0.90;0.70;;;6.60;99.90;;;;;;5111451;28;21045;-66
2021/05/16 02:22:10;;;;;;;0.90;0.70;;;6.60;99.90;;;;;;5111744;28;20454;-66
2021/05/16 02:24:37;;;;;;;0.90;0.70;;;6.60;99.90;;;;;;5111823;28;20471;-65
2021/05/16 02:27:04;;;;;;;0.90;0.80;;;6.60;99.90;;;;;;5111691;28;21035;-66
2021/05/16 02:29:31;;;;;;;5.30;0.87;;;6.60;99.90;;;;;;5111569;28;20433;-66
2021/05/16 02:31:59;;;;;;;1.73;1.10;;;6.60;99.90;;;;;;5111512;28;20926;-66
2021/05/16 02:34:26;;;;;;;1.47;0.80;;;6.60;99.90;;;;;;5111732;28;20424;-66
2021/05/16 02:36:53;;;;;;;0.93;0.77;;;6.60;99.90;;;;;;5111538;28;20456;-65
2021/05/16 02:39:19;;;;;;;1.43;0.87;;;6.60;99.90;;;;;;5111272;28;20473;-66
2021/05/16 02:41:46;;;;;;;1.97;1.00;;;6.60;99.90;;;;;;5111351;28;20433;-66
2021/05/16 02:44:13;;;;;;;2.17;0.90;;;6.60;99.90;;;;;;5111363;28;20438;-65
2021/05/16 02:46:40;;;;;;;1.10;0.83;;;6.60;99.90;;;;;;5111054;28;20465;-65
2021/05/16 02:49:08;;;;;;;1.37;0.87;;;6.60;99.90;;;;;;5110912;28;21117;-65
2021/05/16 02:51:34;;;;;;;0.90;0.70;;;6.60;99.90;;;;;;5111397;28;20429;-66
2021/05/16 02:54:01;;;;;;;1.10;0.90;;;6.60;99.90;;;;;;5111318;28;20426;-66
2021/05/16 02:56:28;;;;;;;2.03;0.83;;;6.60;99.90;;;;;;5111319;28;20833;-66
2021/05/16 02:58:54;;;;;;;1.00;0.80;;;6.60;99.90;;;;;;5110969;28;20472;-66
2021/05/16 03:01:21;;;;;;;7.03;0.90;;;6.70;99.90;;;;;;5111357;28;20425;-66
2021/05/16 03:03:48;;;;;;;2.80;0.73;;;6.70;99.90;;;;;;5110922;28;20428;-65
2021/05/16 03:06:15;;;;;;;1.47;0.80;;;6.70;99.90;;;;;;5112960;28;20462;-66
2021/05/16 03:08:42;;;;;;;2.70;1.17;;;6.80;99.90;;;;;;5115447;28;20805;-66
2021/05/16 03:11:09;;;;;;;1.10;0.80;;;6.70;99.90;;;;;;5114639;28;20491;-65
2021/05/16 03:13:35;;;;;;;1.33;0.80;;;6.70;99.90;;;;;;5115197;28;20928;-66
2021/05/16 03:16:02;;;;;;;4.57;0.90;;;6.70;99.90;;;;;;5115284;28;20783;-66
2021/05/16 03:18:29;;;;;;;1.87;1.00;;;6.70;99.90;;;;;;5115054;28;20465;-66
2021/05/16 03:20:56;;;;;;;4.37;0.90;;;6.70;99.90;;;;;;5114688;27;20801;-65
2021/05/16 03:23:23;;;;;;;1.30;1.00;;;6.70;99.90;;;;;;5115170;27;20439;-65
2021/05/16 03:25:50;;;;;;;1.53;1.00;;;6.70;99.90;;;;;;5115184;28;20950;-66
2021/05/16 03:28:17;;;;;;;1.37;1.27;;;6.60;99.90;;;;;;5114993;28;20435;-65
2021/05/16 03:30:44;;;;;;;0.90;0.80;;;6.60;99.90;;;;;;5115239;28;20434;-66
2021/05/16 03:33:11;;;;;;;1.83;0.90;;;6.60;99.90;;;;;;5115284;28;20425;-65
2021/05/16 03:35:38;;;;;;;4.37;0.83;;;6.60;99.90;;;;;;5115100;28;20455;-65
2021/05/16 03:38:04;;;;;;;4.73;1.00;;;6.50;99.90;;;;;;5114691;28;20460;-65
2021/05/16 03:40:32;;;;;;;3.43;1.07;;;6.50;99.90;;;;;;5114478;28;20424;-65
2021/05/16 03:42:59;;;;;;;1.27;0.80;;;6.50;99.90;;;;;;5114991;27;20434;-66
2021/05/16 03:45:25;;;;;;;1.93;1.00;;;6.50;99.90;;;;;;5114240;27;20465;-65
2021/05/16 03:47:52;;;;;;;2.17;1.00;;;6.50;99.90;;;;;;5114695;28;20486;-66
2021/05/16 03:50:19;;;;;;;5.70;1.13;;;6.50;99.90;;;;;;5114334;28;20426;-65
2021/05/16 03:52:45;;;;;;;3.47;1.27;;;6.50;99.90;;;;;;5114444;28;20420;-66
2021/05/16 03:55:13;;;;;;;1.93;1.07;;;6.40;99.90;;;;;;5114474;28;20451;-65
2021/05/16 03:57:41;;;;;;;1.30;0.90;;;6.40;99.90;;;;;;5114512;28;20439;-66
2021/05/16 04:00:09;;;;;;;1.30;0.90;;;6.50;99.90;;;;;;5114417;28;20445;-66
2021/05/16 04:02:35;;;;;;;5.70;1.50;;;6.40;99.90;;;;;;5114584;27;20429;-65
2021/05/16 04:05:03;;;;;;;1.37;1.10;;;6.40;99.90;;;;;;5114343;28;20445;-65
2021/05/16 04:07:29;;;;;;;1.20;1.10;;;6.40;99.90;;;;;;5114473;28;20429;-66
2021/05/16 04:09:57;;;;;;;1.80;1.17;;;6.40;99.90;;;;;;5113388;28;20444;-65
2021/05/16 04:12:23;;;;;;;1.10;0.80;;;6.40;99.90;;;;;;5114257;28;20968;-66
2021/05/16 04:14:51;;;;;;;2.50;0.93;;;6.40;99.90;;;;;;5114419;28;20421;-66
2021/05/16 04:17:19;;;;;;;3.50;2.50;;;6.40;99.90;;;;;;5114023;28;20555;-65
2021/05/16 04:19:46;;;;;;;1.30;1.20;;;6.40;99.90;;;;;;5113696;28;20492;-65
2021/05/16 04:22:13;;;;;;;1.30;1.20;;;6.50;99.90;;;;;;5113352;27;20461;-65
2021/05/16 04:24:39;;;;;;;1.20;1.10;;;6.50;99.90;;;;;;5114008;28;20448;-65
2021/05/16 04:27:06;;;;;;;2.50;1.10;;;6.60;99.90;;;;;;5114048;27;20425;-66
2021/05/16 04:29:33;;;;;;;1.00;0.90;;;6.60;99.90;;;;;;5119644;27;20503;-66
2021/05/16 04:32:01;;;;;;;1.20;1.10;;;6.60;99.90;;;;;;5117116;27;20448;-63
2021/05/16 04:34:28;;;;;;;2.90;1.20;;;6.50;99.90;;;;;;5112602;27;20778;-63
2021/05/16 04:36:54;;;;;;;1.83;1.00;;;6.50;99.90;;;;;;5113663;28;20566;-63
2021/05/16 04:39:21;;;;;;;2.00;1.30;;;6.60;99.90;;;;;;5113864;28;20946;-63
2021/05/16 04:41:48;;;;;;;2.40;1.63;;;6.50;99.90;;;;;;5114122;28;20438;-65
2021/05/16 04:44:15;;;;;;;2.37;1.33;;;6.50;99.90;;;;;;5113251;28;20464;-65
2021/05/16 04:46:41;;;;;;;1.17;1.00;;;6.50;99.90;;;;;;5113575;28;20870;-64
2021/05/16 04:49:09;;;;;;;1.53;1.10;;;6.50;99.90;;;;;;5113457;28;20437;-61
2021/05/16 04:51:36;;;;;;;1.23;1.00;;;6.60;99.90;;;;;;5113409;28;20425;-65
2021/05/16 04:54:03;;;;;;;1.20;1.03;;;6.60;99.90;;;;;;5113169;28;20532;-63
2021/05/16 04:56:29;;;;;;;2.60;0.90;;;6.60;99.90;;;;;;5113468;28;20452;-64
2021/05/16 04:58:56;;;;;;;1.20;1.10;;;6.70;99.90;;;;;;5113316;28;20472;-62
2021/05/16 05:01:24;;;;;;;1.10;0.83;;;6.70;99.90;;;;;;5113290;28;20437;-62
2021/05/16 05:03:50;;;;;;;2.10;1.00;;;6.70;99.90;;;;;;5113068;28;20446;-63
2021/05/16 05:06:18;;;;;;;1.30;1.17;;;6.70;99.90;;;;;;5113045;28;20446;-63
2021/05/16 05:08:45;;;;;;;1.20;1.10;;;6.70;99.90;;;;;;5113513;28;20439;-62
2021/05/16 05:11:12;;;;;;;3.60;1.07;;;6.80;99.90;;;;;;5113156;28;20441;-62
2021/05/16 05:13:38;;;;;;;3.70;1.03;;;6.80;99.90;;;;;;5113255;28;20557;-63
2021/05/16 05:16:06;;;;;;;1.50;1.40;;;6.90;99.90;;;;;;5112982;28;20471;-62
2021/05/16 05:18:33;;;;;;;1.30;1.20;;;6.90;99.90;;;;;;5112718;27;20474;-62
2021/05/16 05:21:00;;;;;;;2.33;1.30;;;7.00;99.90;;;;;;5112992;28;20433;-62
2021/05/16 05:23:28;;;;;;;1.70;1.07;;;7.00;99.90;;;;;;5113259;28;20451;-63
2021/05/16 05:25:56;;;;;;;1.40;1.23;;;7.10;99.90;;;;;;5113112;28;21006;-62
2021/05/16 05:28:23;;;;;;;3.10;2.03;;;7.20;99.90;;;;;;5112214;28;20432;-63
2021/05/16 05:30:53;;;;;;;1.20;1.03;;;7.20;99.90;;;;;;5113054;28;20437;-62
2021/05/16 05:33:20;;;;;;;4.37;1.27;;;7.20;99.90;;;;;;5111728;27;20461;-62
2021/05/16 05:35:47;;;;;;;1.33;1.13;;;7.20;99.90;;;;;;5112589;28;20461;-62
2021/05/16 05:38:14;;;;;;;2.27;1.37;;;7.30;99.90;;;;;;5112537;28;20474;-63
2021/05/16 05:40:41;;;;;;;1.87;1.37;;;7.30;99.90;;;;;;5112525;28;20843;-63
2021/05/16 05:43:08;;;;;;;3.83;1.90;;;7.30;99.90;;;;;;5112553;28;20435;-63
2021/05/16 05:45:35;;;;;;;1.73;1.63;;;7.40;99.90;;;;;;5112454;28;20786;-62
2021/05/16 05:48:02;;;;;;;4.70;1.63;;;7.30;99.90;;;;;;5112103;27;20443;-64
2021/05/16 05:50:29;;;;;;;3.50;1.60;;;7.40;99.90;;;;;;5120554;27;20498;-64
2021/05/16 05:52:58;;;;;;;1.40;1.13;;;7.40;99.90;;;;;;5132684;27;20423;-64
2021/05/16 05:55:25;;;;;;;3.73;2.03;;;7.50;99.90;;;;;;5132810;27;20460;-63
2021/05/16 05:57:53;;;;;;;5.47;1.67;;;7.60;99.90;;;;;;5130058;27;20429;-63
2021/05/16 06:00:20;;;;;;;5.10;2.27;;;7.60;99.90;;;;;;5111587;28;20441;-63
2021/05/16 06:02:47;;;;;;;2.23;1.40;;;7.70;99.90;;;;;;5124252;27;20446;-63
2021/05/16 06:05:13;;;;;;;1.80;1.13;;;7.80;99.90;;;;;;5132293;27;20440;-63
2021/05/16 06:07:40;;;;;;;9.97;1.77;;;7.80;99.90;;;;;;5132496;27;20788;-63
2021/05/16 06:10:07;;;;;;;3.40;2.00;;;7.80;99.90;;;;;;5132162;27;20757;-63
2021/05/16 06:12:34;;;;;;;5.10;1.30;;;7.80;99.90;;;;;;5132332;27;20799;-63
2021/05/16 06:15:03;;;;;;;3.40;1.67;;;7.90;99.90;;;;;;5132143;27;20457;-62
2021/05/16 06:17:30;;;;;;;1.93;1.37;;;8.00;99.90;;;;;;5131945;27;20828;-62
2021/05/16 06:19:56;;;;;;;1.43;1.33;;;8.10;99.90;;;;;;5110966;28;20475;-63
2021/05/16 06:22:23;;;;;;;5.80;1.37;;;8.20;99.90;;;;;;5111755;28;20449;-63
2021/05/16 06:24:50;;;;;;;2.37;1.33;;;8.20;99.90;;;;;;5111644;28;20424;-64
2021/05/16 06:27:16;;;;;;;1.37;1.27;;;8.30;99.90;;;;;;5110631;28;20486;-63
2021/05/16 06:29:43;;;;;;;1.73;1.03;;;8.40;99.90;;;;;;5110471;28;20437;-64
2021/05/16 06:32:11;;;;;;;3.00;1.10;;;8.40;99.90;;;;;;5119307;27;20926;-63
2021/05/16 06:34:38;;;;;;;1.67;1.10;;;8.40;99.90;;;;;;5117067;27;20439;-63
2021/05/16 06:37:04;;;;;;;1.10;0.80;;;8.50;99.90;;;;;;5111572;28;20520;-63
2021/05/16 06:39:31;;;;;;;1.27;0.97;;;8.50;99.90;;;;;;5111047;28;20504;-63
2021/05/16 06:41:58;;;;;;;4.47;1.20;;;8.50;99.90;;;;;;5110933;28;20494;-64
2021/05/16 06:44:25;;;;;;;2.07;1.27;;;8.60;99.90;;;;;;5126278;27;20422;-63
2021/05/16 06:46:52;;;;;;;2.70;1.20;;;8.80;99.90;;;;;;5131842;27;20447;-64
2021/05/16 06:49:20;;;;;;;2.83;1.20;;;8.90;99.90;;;;;;5122926;27;20456;-63
2021/05/16 06:51:47;;;;;;;2.63;1.00;;;8.90;99.90;;;;;;5111151;28;20439;-63
2021/05/16 06:54:14;;;;;;;2.67;1.43;;;8.90;99.90;;;;;;5111086;28;20439;-63
2021/05/16 06:56:40;;;;;;;1.20;1.00;;;9.00;99.90;;;;;;5110787;28;20451;-63
2021/05/16 06:59:07;;;;;;;2.50;1.27;;;9.00;99.90;;;;;;5110842;28;20467;-63
2021/05/16 07:01:36;;;;;;;1.73;1.40;;;9.00;99.90;;;;;;5111082;28;20416;-63
2021/05/16 07:04:03;;;;;;;9.07;1.37;;;9.00;99.90;;;;;;5111397;28;20436;-62
2021/05/16 07:06:33;;;;;;;4.40;1.43;;;9.10;99.90;;;;;;5109992;28;20468;-63
2021/05/16 07:09:00;;;;;;;2.83;1.03;;;9.00;99.90;;;;;;5110631;28;20441;-63
2021/05/16 07:11:26;;;;;;;5.17;1.20;;;9.20;99.90;;;;;;5110817;28;20418;-63
2021/05/16 07:13:53;;;;;;;1.10;1.00;;;9.10;99.90;;;;;;5111143;28;20489;-62
2021/05/16 07:16:20;;;;;;;4.20;1.10;;;9.20;99.90;;;;;;5110888;28;20448;-63
2021/05/16 07:18:47;;;;;;;6.37;1.60;;;9.30;99.90;;;;;;5110703;28;20460;-62
2021/05/16 07:21:14;;;;;;;2.07;1.20;;;9.40;99.90;;;;;;5110873;28;20447;-63
2021/05/16 07:23:41;;;;;;;8.00;1.40;;;9.50;99.90;;;;;;5109897;28;20504;-64
2021/05/16 07:26:08;;;;;;;2.70;0.97;;;9.60;99.90;;;;;;5111005;28;20446;-64
2021/05/16 07:28:35;;;;;;;4.57;1.50;;;9.60;99.90;;;;;;5110684;28;20496;-63
2021/05/16 07:31:01;;;;;;;3.23;1.33;;;9.80;99.90;;;;;;5113390;28;21117;-64
2021/05/16 07:33:28;;;;;;;4.20;2.80;;;9.80;99.90;;;;;;5121445;27;20433;-64
2021/05/16 07:35:55;;;;;;;2.50;0.93;;;9.70;99.90;;;;;;5110771;28;20824;-64
2021/05/16 07:38:21;;;;;;;6.50;1.37;;;9.80;99.90;;;;;;5110401;28;20475;-64
2021/05/16 07:40:49;;;;;;;4.93;1.10;;;9.90;99.90;;;;;;5110479;28;20442;-64
2021/05/16 07:43:16;;;;;;;6.27;1.37;;;10.00;99.90;;;;;;5115725;28;20441;-64
2021/05/16 07:45:43;;;;;;;6.60;1.40;;;10.00;99.90;;;;;;5131225;27;20450;-66
2021/05/16 07:48:10;;;;;;;3.67;1.23;;;10.00;99.90;;;;;;5131025;27;20423;-65
2021/05/16 07:50:37;;;;;;;1.87;1.27;;;10.10;99.90;;;;;;5131041;27;20427;-65
2021/05/16 07:53:04;;;;;;;4.87;1.40;;;10.20;99.90;;;;;;5122634;27;20432;-65
2021/05/16 07:55:30;;;;;;;3.30;0.80;;;10.40;99.90;;;;;;5114567;28;20443;-66
2021/05/16 07:57:58;;;;;;;5.73;1.40;;;10.40;99.90;;;;;;5114467;28;20432;-65
2021/05/16 08:00:25;;;;;;;2.70;1.20;;;10.20;99.90;;;;;;5114105;28;20467;-65
2021/05/16 08:02:51;;;;;;;2.83;1.30;;;10.00;99.90;;;;;;5113764;28;20905;-65
2021/05/16 08:05:18;;;;;;;2.13;1.00;;;10.00;99.90;;;;;;5113985;28;20451;-64
2021/05/16 08:07:45;;;;;;;1.90;0.87;;;10.10;99.90;;;;;;5114281;28;20799;-64
2021/05/16 08:10:13;;;;;;;4.70;1.77;;;10.20;99.90;;;;;;5114360;28;20484;-64
2021/05/16 08:12:40;;;;;;;1.37;0.90;;;10.40;99.90;;;;;;5114167;28;20920;-65
2021/05/16 08:15:12;;;;;;;2.03;0.70;;;10.70;99.90;;;;;;5114066;28;20466;-64
2021/05/16 08:17:38;;;;;;;3.10;0.80;;;10.60;99.90;;;;;;5114014;28;20514;-64
2021/05/16 08:20:07;;;;;;;2.10;1.53;;;10.40;99.90;;;;;;5113639;28;20463;-62
2021/05/16 08:22:34;;;;;;;1.33;1.10;;;10.60;99.90;;;;;;5113548;28;20493;-66
2021/05/16 08:25:02;;;;;;;3.47;1.13;;;10.80;99.90;;;;;;5113962;28;20804;-65
2021/05/16 08:27:28;;;;;;;3.57;1.40;;;10.90;99.90;;;;;;5113949;28;20440;-65
2021/05/16 08:29:55;;;;;;;2.80;1.00;;;10.80;99.90;;;;;;5113598;28;20440;-65
2021/05/16 08:32:22;;;;;;;6.57;1.50;;;11.00;99.90;;;;;;5113679;28;20440;-65
2021/05/16 08:34:49;;;;;;;1.73;1.23;;;11.10;99.90;;;;;;5113326;27;20428;-64
2021/05/16 08:37:16;;;;;;;2.77;1.97;;;11.10;99.90;;;;;;5113568;28;20439;-67
2021/05/16 08:39:43;;;;;;;4.33;1.67;;;11.10;99.90;;;;;;5112474;28;20591;-64
2021/05/16 08:42:12;;;;;;;2.03;0.97;;;11.20;99.90;;;;;;5113762;28;20546;-65
2021/05/16 08:44:39;;;;;;;1.37;0.90;;;11.10;99.90;;;;;;5130402;27;20442;-64
2021/05/16 08:47:07;;;;;;;3.80;1.60;;;11.20;99.90;;;;;;5134027;27;20942;-66
2021/05/16 08:49:35;;;;;;;3.80;1.17;;;11.30;99.90;;;;;;5134129;27;20483;-65
2021/05/16 08:52:01;;;;;;;1.70;1.20;;;11.10;99.90;;;;;;5122401;27;20547;-65
2021/05/16 08:54:28;;;;;;;3.00;1.50;;;11.10;99.90;;;;;;5113606;28;20443;-66
2021/05/16 08:56:56;;;;;;;7.50;1.33;;;11.40;99.90;;;;;;5113475;28;20436;-66
2021/05/16 08:59:24;;;;;;;4.63;1.13;;;11.60;99.90;;;;;;5113009;28;20478;-67
2021/05/16 09:01:52;;;;;;;3.10;1.63;;;11.60;99.90;;;;;;5113167;28;20443;-66
2021/05/16 09:04:21;;;;;;;3.83;1.23;;;11.50;99.90;;;;;;5112300;28;20432;-66
2021/05/16 09:06:52;;;;;;;5.23;1.60;;;11.60;99.90;;;;;;5113104;28;20456;-64
2021/05/16 09:09:27;;;;;;;5.20;1.30;;;11.70;99.90;;;;;;5113006;28;20433;-69
2021/05/16 09:11:59;;;;;;;3.17;1.07;;;11.60;99.90;;;;;;5113054;28;20427;-65
2021/05/16 09:14:48;;;;;;;2.43;1.10;;;11.70;99.90;;;;;;5112699;28;20937;-64
2021/05/16 09:17:26;;;;;;;2.80;2.10;;;11.70;99.90;;;;;;5112530;28;20808;-66
2021/05/16 09:19:54;;;;;;;2.40;1.03;;;11.90;99.90;;;;;;5112578;28;20479;-67
2021/05/16 09:22:39;;;;;;;1.93;0.90;;;12.10;99.90;;;;;;5112460;28;20939;-66
2021/05/16 09:25:14;;;;;;;1.83;0.90;;;12.50;99.90;;;;;;5112927;28;20460;-68
2021/05/16 09:27:43;;;;;;;1.20;0.90;;;12.80;99.90;;;;;;5113699;27;20890;-65
2021/05/16 09:30:32;;;;;;;1.23;1.10;;;12.90;99.90;;;;;;5123628;27;20845;-65
2021/05/16 09:33:02;;;;;;;2.00;1.00;;;12.70;99.90;;;;;;5133279;27;20826;-67
2021/05/16 09:35:39;;;;;;;1.67;1.00;;;12.80;99.90;;;;;;5132895;27;20454;-67
2021/05/16 09:38:12;;;;;;;1.20;1.10;;;12.70;99.90;;;;;;5128799;27;20931;-66
2021/05/16 09:40:42;;;;;;;2.90;1.30;;;12.60;99.90;;;;;;5112465;28;20431;-69
2021/05/16 09:43:11;;;;;;;3.23;1.37;;;12.30;99.90;;;;;;5116981;27;20447;-72
2021/05/16 09:45:50;;;;;;;2.90;1.10;;;12.30;99.90;;;;;;5133293;27;20815;-70
2021/05/16 09:48:19;;;;;;;2.13;1.10;;;12.50;99.90;;;;;;5126155;27;20456;-70
2021/05/16 09:51:11;;;;;;;3.20;0.90;;;12.60;99.90;;;;;;5111776;28;20436;-68
2021/05/16 09:54:07;;;;;;;5.27;1.20;;;12.70;99.90;;;;;;5111920;28;20436;-72
2021/05/16 09:56:35;;;;;;;1.17;1.07;;;12.90;99.90;;;;;;5102686;27;20467;-69
2021/05/16 09:59:04;;;;;;;10.93;1.73;;;12.90;99.90;;;;;;5111759;28;20472;-69
2021/05/16 10:01:31;;;;;;;8.17;1.33;;;12.70;99.90;;;;;;5112158;28;20482;-68
2021/05/16 10:03:59;;;;;;;1.60;1.20;;;12.80;99.90;;;;;;5110994;28;20444;-69
2021/05/16 10:06:27;;;;;;;3.20;1.10;;;12.70;99.90;;;;;;5111768;28;20448;-68
2021/05/16 10:08:54;;;;;;;2.37;2.17;;;12.90;99.90;;;;;;5110828;27;20448;-70
2021/05/16 10:11:24;;;;;;;1.63;0.80;;;12.90;99.90;;;;;;5112247;28;20444;-69
2021/05/16 10:14:02;;;;;;;3.73;1.17;;;12.70;99.90;;;;;;5111661;28;20420;-69
2021/05/16 10:16:32;;;;;;;1.43;0.90;;;12.60;99.90;;;;;;5112315;28;20463;-69
2021/05/16 10:19:00;;;;;;;2.23;1.73;;;12.40;99.90;;;;;;5111463;28;20484;-69
2021/05/16 10:21:27;;;;;;;3.30;0.90;;;12.20;99.90;;;;;;5111764;28;20428;-69
2021/05/16 10:24:12;;;;;;;2.57;1.30;;;12.50;99.90;;;;;;5111455;28;20427;-70
2021/05/16 10:26:41;;;;;;;1.20;0.80;;;12.40;99.90;;;;;;5111728;28;20446;-69
2021/05/16 10:29:09;;;;;;;2.40;1.47;;;12.50;99.90;;;;;;5113721;27;20439;-70
2021/05/16 10:31:41;;;;;;;1.33;0.90;;;12.70;99.90;;;;;;5122325;27;20424;-70
2021/05/16 10:34:44;;;;;;;2.50;1.50;;;12.90;99.90;;;;;;5111933;27;20773;-71
2021/05/16 10:37:36;;;;;;;9.50;4.70;;;13.10;99.90;;;;;;5048011;28;20438;-69
2021/05/16 10:40:05;;;;;;;1.60;1.50;;;13.30;99.90;;;;;;5047350;28;20473;-72
2021/05/16 10:42:37;;;;;;;3.37;2.23;;;13.40;99.90;;;;;;5099526;27;20536;-69
2021/05/16 10:45:10;;;;;;;3.37;1.03;;;13.50;99.90;;;;;;5111220;28;20440;-70
2021/05/16 10:47:50;;;;;;;2.83;1.13;;;13.60;99.90;;;;;;5111421;28;20416;-70
2021/05/16 10:50:55;;;;;;;1.40;1.30;;;13.50;99.90;;;;;;5111371;28;20909;-69
2021/05/16 10:53:41;;;;;;;1.40;1.30;;;13.60;99.90;;;;;;5111186;28;20514;-69
2021/05/16 10:56:25;;;;;;;2.70;1.10;;;13.40;99.90;;;;;;5111372;28;20448;-69
2021/05/16 10:58:57;;;;;;;2.23;1.30;;;13.50;99.90;;;;;;5110439;28;20532;-69
2021/05/16 11:01:35;;;;;;;4.97;1.20;;;13.60;99.90;;;;;;5110984;28;20428;-69
2021/05/16 11:04:03;;;;;;;1.23;1.03;;;13.90;99.90;;;;;;5111102;28;20439;-70
2021/05/16 11:06:56;;;;;;;4.50;1.20;;;13.90;99.90;;;;;;5110739;28;20455;-69
2021/05/16 11:09:35;;;;;;;2.20;0.90;;;13.70;99.90;;;;;;5110541;28;20424;-71
2021/05/16 11:12:04;;;;;;;1.60;1.20;;;13.40;99.90;;;;;;5111059;28;20510;-68
2021/05/16 11:14:39;;;;;;;1.63;1.00;;;13.30;99.90;;;;;;5110051;28;20509;-71
2021/05/16 11:17:10;;;;;;;2.13;1.20;;;13.20;99.90;;;;;;5110630;28;20439;-68
2021/05/16 11:19:40;;;;;;;2.73;0.97;;;13.00;99.90;;;;;;5110722;28;20486;-71
2021/05/16 11:22:14;;;;;;;2.63;1.10;;;12.90;99.90;;;;;;5110434;28;20479;-69
2021/05/16 11:24:46;;;;;;;7.00;1.10;;;12.80;99.90;;;;;;5110855;28;20416;-71
2021/05/16 11:27:16;;;;;;;2.60;1.00;;;12.60;99.90;;;;;;5112678;28;20416;-71
2021/05/16 11:29:44;;;;;;;1.77;1.20;;;12.60;99.90;;;;;;5114208;27;20539;-70
2021/05/16 11:32:11;;;;;;;3.43;1.30;;;12.70;99.90;;;;;;5114874;28;20473;-69
2021/05/16 11:34:37;;;;;;;1.37;1.00;;;12.70;99.90;;;;;;5114927;28;20937;-71
2021/05/16 11:37:19;;;;;;;3.23;0.97;;;12.70;99.90;;;;;;5114752;28;20439;-71
2021/05/16 11:39:45;;;;;;;2.03;1.43;;;12.70;99.90;;;;;;5112785;28;20471;-69
2021/05/16 11:42:12;;;;;;;1.77;1.00;;;12.60;99.90;;;;;;5114622;28;21041;-69
2021/05/16 11:44:39;;;;;;;3.57;1.20;;;12.50;99.90;;;;;;5131770;27;20439;-70
2021/05/16 11:47:06;;;;;;;1.40;1.10;;;12.40;99.90;;;;;;5126646;27;20478;-69
2021/05/16 11:49:33;;;;;;;1.83;1.10;;;12.30;99.90;;;;;;5124200;27;20436;-69
2021/05/16 11:52:03;;;;;;;4.07;1.00;;;12.20;99.90;;;;;;5134792;27;20423;-70
2021/05/16 11:54:38;;;;;;;3.00;2.03;;;12.10;99.90;;;;;;5135213;27;20492;-69
2021/05/16 11:57:05;;;;;;;4.63;1.23;;;12.10;99.90;;;;;;5135434;27;21000;-69
2021/05/16 11:59:35;;;;;;;3.43;1.00;;;12.00;99.90;;;;;;5134820;27;20463;-69
2021/05/16 12:02:03;;;;;;;2.67;1.43;;;12.10;99.90;;;;;;5135032;27;20438;-68
2021/05/16 12:04:39;;;;;;;2.40;1.37;;;12.00;99.90;;;;;;5134999;27;20916;-69
2021/05/16 12:07:06;;;;;;;2.60;1.00;;;12.00;99.90;;;;;;5134513;27;20439;-70
2021/05/16 12:09:38;;;;;;;4.30;1.87;;;11.90;99.90;;;;;;5124618;27;20500;-69
2021/05/16 12:12:17;;;;;;;1.30;1.00;;;11.80;99.90;;;;;;5114030;28;20428;-70
2021/05/16 12:14:45;;;;;;;1.60;1.10;;;11.60;99.90;;;;;;5114198;28;20447;-70
2021/05/16 12:17:13;;;;;;;1.20;1.10;;;11.60;99.90;;;;;;5114488;28;20455;-71
2021/05/16 12:19:41;;;;;;;3.43;1.00;;;11.40;99.90;;;;;;5118296;27;20478;-69
2021/05/16 12:22:10;;;;;;;3.00;1.50;;;11.30;99.90;;;;;;5121634;27;20865;-69
2021/05/16 12:24:42;;;;;;;1.23;0.90;;;11.20;99.90;;;;;;5134868;27;20446;-70
2021/05/16 12:27:11;;;;;;;1.10;0.80;;;11.10;99.90;;;;;;5127373;27;20506;-71
2021/05/16 12:29:40;;;;;;;2.90;1.23;;;10.90;99.90;;;;;;5117375;27;20452;-69
2021/05/16 12:32:07;;;;;;;1.00;0.80;;;10.70;99.90;;;;;;5121023;27;20434;-70
2021/05/16 12:34:34;;;;;;;3.77;0.87;;;10.70;99.90;;;;;;5114244;28;20436;-70
2021/05/16 12:37:03;;;;;;;2.83;1.23;;;10.60;99.90;;;;;;5114170;28;20801;-70
2021/05/16 12:39:40;;;;;;;3.10;1.00;;;10.50;99.90;;;;;;5114619;28;20472;-69
2021/05/16 12:42:29;;;;;;;1.47;1.00;;;10.40;99.90;;;;;;5113922;28;20948;-70
2021/05/16 12:45:13;;;;;;;2.20;1.33;;;10.20;99.90;;;;;;5133762;27;20785;-69
2021/05/16 12:47:40;;;;;;;2.13;1.00;;;10.00;99.90;;;;;;5134295;27;20430;-69
2021/05/16 12:50:09;;;;;;;2.80;1.50;;;10.00;99.90;;;;;;5134162;27;20415;-70
2021/05/16 12:52:37;;;;;;;9.47;5.00;;;9.80;99.90;;;;;;5134083;27;20435;-69
2021/05/16 12:55:05;;;;;;;6.60;2.63;;;9.80;99.90;;;;;;5133954;27;20439;-70
2021/05/16 12:57:43;;;;;;;2.80;1.70;;;9.90;99.90;;;;;;5134035;27;20906;-70
2021/05/16 13:00:10;;;;;;;10.17;3.23;;;9.90;99.90;;;;;;5113330;28;20506;-70
2021/05/16 13:02:39;;;;;;;1.93;1.50;;;9.90;99.90;;;;;;5113533;28;20429;-70